San Antonio, Texas
Traffic Map
Current Weather Conditions
San Antonio, Texas
Clear
Clear
10°
Feels Like: 10°
Wind Chill: 10° Ceiling: Unl
Heat Index: 10° Visibility: 10mi
Dew Point: 10° Wind: 0mph
Humidity: 97% Direction: ° ()
Pressure: 29.69in Gusts: 0mph
Raw Report DataKSKF 231158Z AUTO 00000KT 10SM CLR 10/10 A2969 RMK AO2 SLP051 70063 T01030098 10140 20103 55004 $
Traffic Incident Summary
Active as of:
Severity:
Category:
InformationThere was an issue retrieving the traffic information for this location. Please try a different location or try again shortly.
Advertisements
Track Severe Weather on mobile